Messwerte Trevico

Temperatur

Temperatur
°C
1579737600 1.00 1.00
1579741200 2.00 2.00 5
1579744800 3.00 3.00 5
1579748400 4.00 4.00 5
1579752000 5.00 5.00
1579755600 6.00 6.00 4
1579759200 7.00 7.00 4
1579762800 8.00 8.00 5
1579766400 9.00 9.00 6
1579770000 10.00 10.00 6
1579773600 11.00 11.00 6
1579777200 12.00 12.00 6
1579780800 13.00 13.00 6
1579784400 14.00 14.00 6
1579788000 15.00 15.00 5
1579791600 16.00 16.00 5
1579795200 17.00 17.00 4
1579798800 18.00 18.00 3
1579802400 19.00 19.00 3
1579806000 20.00 20.00 4
1579809600 21.00 21.00
1579813200 22.00 22.00 4
1579816800 23.00 23.00 5
1579820400 0.00 0.00 5

Aktuellste Messwerte

Wettercharakter
Wetter: meist klar
Temperatur
4 °C
Feuchtigkeit
15 %
Wind
15 km/hWindrichtung: Südost
Luftdruck
1026 hPa
Messzeit: 24. Januar 2020, 1.00Datenquelle: METAR

Weitere Messstationen in der Nähe

Messstation Temperatur Entfernung
Amendola 2 °C 67 km
Neapel 6 °C 81 km
Grazzanise 4 °C 97 km
Capri - 103 km
Bari 2 °C 130 km
Gioia del Colle 2 °C 146 km
Marina Ginosa - 155 km

Wind

Windrichtung Böen Mittelwind
° km/h km/h
1579737600 1.00 0.00 - 1.00
1579741200 2.00 1.00 - 2.00 340° 15
1579744800 3.00 2.00 - 3.00 330° 15
1579748400 4.00 3.00 - 4.00 330° 15
1579752000 5.00 4.00 - 5.00
1579755600 6.00 5.00 - 6.00 340° 20
1579759200 7.00 6.00 - 7.00 330° 20
1579762800 8.00 7.00 - 8.00 320° 15
1579766400 9.00 8.00 - 9.00 320° 10
1579770000 10.00 9.00 - 10.00 330° 5
1579773600 11.00 10.00 - 11.00 360° 10
1579777200 12.00 11.00 - 12.00 10
1579780800 13.00 12.00 - 13.00 60° 10
1579784400 14.00 13.00 - 14.00 80° 10
1579788000 15.00 14.00 - 15.00 80° 15
1579791600 16.00 15.00 - 16.00 80° 20
1579795200 17.00 16.00 - 17.00 70° 25
1579798800 18.00 17.00 - 18.00 90° 15
1579802400 19.00 18.00 - 19.00 90° 15
1579806000 20.00 19.00 - 20.00 80° 15
1579809600 21.00 20.00 - 21.00
1579813200 22.00 21.00 - 22.00 120° 10
1579816800 23.00 22.00 - 23.00 10
1579820400 0.00 23.00 - 0.00 10

Ihre Wetterstation

Fehlt Ihre Wetterstation auf unserem Portal?

Schreiben Sie an network@meteonews.ch

Klima

Wann ist es am wärmsten? Wann regnet es am wenigsten? Unsere Klimadaten geben Auskunft.